createdAt,value
2023-03-12T00:00:33.783Z,0.88
2023-03-12T00:07:27.958Z,0.82
2023-03-12T00:14:14.806Z,0.74
2023-03-12T00:21:02.916Z,0.68
2023-03-12T00:32:39.454Z,0.65
2023-03-12T00:39:33.591Z,0.65
2023-03-12T00:46:17.095Z,0.70
2023-03-12T00:53:14.058Z,0.77
2023-03-12T00:59:54.689Z,0.81
2023-03-12T01:06:48.680Z,0.81
2023-03-12T01:13:31.108Z,0.82
2023-03-12T01:20:24.863Z,0.75
2023-03-12T01:31:44.048Z,0.70
2023-03-12T01:38:30.526Z,0.54
2023-03-12T01:46:04.079Z,0.39
2023-03-12T01:52:54.136Z,0.16
2023-03-12T01:59:49.958Z,0.15
2023-03-12T02:06:43.942Z,0.08
2023-03-12T02:13:38.817Z,0.06
2023-03-12T02:20:33.358Z,0.02
2023-03-12T02:31:56.842Z,-0.15
2023-03-12T02:38:47.453Z,-0.23
2023-03-12T02:42:08.078Z,-0.21
2023-03-12T02:44:43.835Z,-0.22
2023-03-12T02:47:21.344Z,-0.15
2023-03-12T02:49:54.009Z,-0.16
2023-03-12T02:52:41.754Z,-0.18
2023-03-12T02:55:16.752Z,-0.21
2023-03-12T02:58:05.410Z,-0.26
2023-03-12T03:01:05.652Z,-0.26
2023-03-12T03:08:00.817Z,-0.32
2023-03-12T03:10:32.885Z,-0.40
2023-03-12T03:13:04.722Z,-0.40
2023-03-12T03:15:36.779Z,-0.44
2023-03-12T03:18:11.266Z,-0.48
2023-03-12T03:20:45.226Z,-0.50
2023-03-12T03:23:45.230Z,-0.56
2023-03-12T03:26:38.357Z,-0.60
2023-03-12T03:30:19.859Z,-0.63
2023-03-12T03:32:51.986Z,-0.70
2023-03-12T03:35:24.454Z,-0.73
2023-03-12T03:38:52.026Z,-0.74
2023-03-12T03:41:51.826Z,-0.76
2023-03-12T03:44:50.762Z,-0.74
2023-03-12T03:47:19.489Z,-0.80
2023-03-12T03:50:00.812Z,-0.80
2023-03-12T03:52:33.203Z,-0.77
2023-03-12T03:55:20.247Z,-0.77
2023-03-12T03:58:54.425Z,-0.76
2023-03-12T04:01:26.211Z,-0.80
2023-03-12T04:04:00.111Z,-0.85
2023-03-12T04:06:54.198Z,-0.88
2023-03-12T04:09:35.868Z,-0.91
2023-03-12T04:13:12.453Z,-0.91
2023-03-12T04:15:49.082Z,-0.92
2023-03-12T04:18:26.874Z,-0.95
2023-03-12T04:21:00.820Z,-0.94
2023-03-12T04:23:58.293Z,-0.97
2023-03-12T04:26:58.638Z,-0.88
2023-03-12T04:29:56.260Z,-0.85
2023-03-12T04:32:24.746Z,-0.83
2023-03-12T04:35:00.991Z,-0.80
2023-03-12T04:37:38.668Z,-0.83
2023-03-12T04:40:22.069Z,-0.87
2023-03-12T04:42:52.676Z,-0.90
2023-03-12T04:45:44.276Z,-0.91
2023-03-12T04:48:16.691Z,-0.94
2023-03-12T04:50:55.723Z,-0.92
2023-03-12T04:54:13.977Z,-0.97
2023-03-12T04:57:37.022Z,-0.94
2023-03-12T05:00:13.100Z,-0.91
2023-03-12T05:03:01.574Z,-0.90
2023-03-12T05:05:35.974Z,-0.94
2023-03-12T05:08:19.864Z,-0.94
2023-03-12T05:10:53.591Z,-0.92
2023-03-12T05:13:28.245Z,-0.92
2023-03-12T05:16:00.026Z,-0.99
2023-03-12T05:18:39.758Z,-0.97
2023-03-12T05:21:12.862Z,-0.98
2023-03-12T05:23:47.752Z,-0.99
2023-03-12T05:26:31.707Z,-0.95
2023-03-12T05:29:52.363Z,-0.91
2023-03-12T05:32:37.539Z,-0.90
2023-03-12T05:35:07.501Z,-0.87
2023-03-12T05:37:37.222Z,-0.85
2023-03-12T05:40:09.470Z,-0.83
2023-03-12T05:42:37.977Z,-0.80
2023-03-12T05:45:11.116Z,-0.70
2023-03-12T05:48:15.922Z,-0.70
2023-03-12T05:50:47.736Z,-0.69
2023-03-12T05:53:23.241Z,-0.63
2023-03-12T05:56:04.870Z,-0.63
2023-03-12T05:58:46.405Z,-0.52
2023-03-12T06:01:18.347Z,-0.46
2023-03-12T06:03:52.208Z,-0.39
2023-03-12T06:06:38.074Z,-0.57
2023-03-12T06:09:08.624Z,-0.64
2023-03-12T06:11:44.806Z,-0.60
2023-03-12T06:14:14.885Z,-0.60
2023-03-12T06:16:44.552Z,-0.54
2023-03-12T06:19:18.644Z,-0.42
2023-03-12T06:21:53.428Z,-0.34
2023-03-12T06:24:22.964Z,-0.21
2023-03-12T06:27:09.756Z,-0.12
2023-03-12T06:29:39.108Z,-0.04
2023-03-12T06:32:19.312Z,0.15
2023-03-12T06:34:52.755Z,0.15
2023-03-12T06:37:22.423Z,0.20
2023-03-12T06:39:50.871Z,0.33
2023-03-12T06:42:22.825Z,0.46
2023-03-12T06:45:10.800Z,0.60
2023-03-12T06:48:04.281Z,0.74
2023-03-12T06:50:36.152Z,0.78
2023-03-12T06:54:09.420Z,0.84
2023-03-12T06:56:39.892Z,0.88
2023-03-12T07:03:22.615Z,0.92
2023-03-12T07:05:53.213Z,0.96
2023-03-12T07:08:21.840Z,1.09
2023-03-12T07:10:55.725Z,1.23
2023-03-12T07:13:30.562Z,1.33
2023-03-12T07:15:59.074Z,1.32
2023-03-12T07:18:35.474Z,1.39
2023-03-12T07:21:11.626Z,1.46
2023-03-12T07:23:41.234Z,1.56
2023-03-12T07:26:16.747Z,1.54
2023-03-12T07:28:46.307Z,1.57
2023-03-12T07:31:19.668Z,1.68
2023-03-12T07:33:54.189Z,1.63
2023-03-12T07:36:27.986Z,1.67
2023-03-12T07:38:59.689Z,1.78
2023-03-12T07:41:32.922Z,1.75
2023-03-12T07:44:03.608Z,1.81
2023-03-12T07:46:34.244Z,1.82
2023-03-12T07:49:16.190Z,1.88
2023-03-12T07:51:46.988Z,2.08
2023-03-12T08:02:45.962Z,2.53
2023-03-12T08:06:05.221Z,2.47
2023-03-12T08:08:42.650Z,2.58
2023-03-12T08:16:09.529Z,2.97
2023-03-12T08:22:40.829Z,3.47
2023-03-12T08:25:40.885Z,3.52
2023-03-12T08:29:00.380Z,3.56
2023-03-12T08:35:53.572Z,3.76
2023-03-12T08:38:31.103Z,3.87
2023-03-12T08:53:37.557Z,4.19
2023-03-12T08:56:08.824Z,4.42
2023-03-12T09:03:02.554Z,4.56
2023-03-12T09:09:57.742Z,4.90
2023-03-12T09:16:48.724Z,5.04
2023-03-12T09:23:42.720Z,5.28
2023-03-12T09:26:24.937Z,5.32
2023-03-12T09:38:16.942Z,5.36
2023-03-12T09:58:47.000Z,5.74
2023-03-12T10:23:07.888Z,6.36
2023-03-12T10:31:28.619Z,6.86
2023-03-12T10:39:50.848Z,6.91
2023-03-12T11:08:23.728Z,8.21
2023-03-12T11:15:22.135Z,8.49
2023-03-12T11:22:32.317Z,8.59
2023-03-12T11:25:32.008Z,8.56
2023-03-12T11:33:11.554Z,8.84
2023-03-12T11:41:06.277Z,9.00
2023-03-12T11:48:42.958Z,8.97
2023-03-12T11:55:57.451Z,9.24
2023-03-12T12:02:56.672Z,8.73
2023-03-12T12:10:02.726Z,9.21
2023-03-12T12:17:09.830Z,9.38
2023-03-12T12:23:58.752Z,9.18
2023-03-12T12:30:59.246Z,9.63
2023-03-12T12:38:04.109Z,9.49
2023-03-12T12:45:05.925Z,9.79
2023-03-12T12:51:57.417Z,9.55
2023-03-12T12:59:27.433Z,10.14
2023-03-12T13:06:14.978Z,9.97
2023-03-12T13:13:05.315Z,9.82
2023-03-12T13:19:55.421Z,9.90
2023-03-12T13:23:05.180Z,9.85
2023-03-12T13:29:46.049Z,10.03
2023-03-12T13:41:33.560Z,10.45
2023-03-12T13:44:31.604Z,10.67
2023-03-12T13:47:28.618Z,10.72
2023-03-12T13:54:03.010Z,10.83
2023-03-12T13:57:06.575Z,10.72
2023-03-12T14:04:06.356Z,10.57
2023-03-12T14:11:14.955Z,10.44
2023-03-12T14:18:17.213Z,10.42
2023-03-12T14:25:13.801Z,9.93
2023-03-12T14:32:17.542Z,9.75
2023-03-12T14:44:05.400Z,9.89
2023-03-12T14:51:01.270Z,9.72
2023-03-12T14:57:52.906Z,9.04
2023-03-12T15:05:21.793Z,8.84
2023-03-12T15:08:48.545Z,8.72
2023-03-12T15:15:44.729Z,8.75
2023-03-12T15:23:06.282Z,8.55
2023-03-12T15:25:41.189Z,8.41
2023-03-12T15:28:54.589Z,8.28
2023-03-12T15:31:52.272Z,8.08
2023-03-12T15:34:41.312Z,7.97
2023-03-12T15:41:45.551Z,7.86
2023-03-12T15:48:31.569Z,7.66
2023-03-12T15:51:29.562Z,7.58
2023-03-12T15:54:26.209Z,7.52
2023-03-12T15:57:24.108Z,7.56
2023-03-12T16:01:01.224Z,7.58
2023-03-12T16:07:52.368Z,7.66
2023-03-12T16:14:41.285Z,7.61
2023-03-12T16:21:29.297Z,7.41
2023-03-12T16:28:22.557Z,7.29
2023-03-12T16:31:50.784Z,7.22
2023-03-12T16:39:24.262Z,7.10
2023-03-12T16:41:54.303Z,7.05
2023-03-12T16:44:25.846Z,7.00
2023-03-12T16:51:24.952Z,6.89
2023-03-12T16:58:25.530Z,6.72
2023-03-12T17:01:00.209Z,6.68
2023-03-12T17:04:33.666Z,6.62
2023-03-12T17:07:03.380Z,6.59
2023-03-12T17:09:35.046Z,6.65
2023-03-12T17:13:01.178Z,6.59
2023-03-12T17:16:29.073Z,6.50
2023-03-12T17:20:08.079Z,6.42
2023-03-12T17:23:32.996Z,6.32
2023-03-12T17:26:31.173Z,6.15
2023-03-12T17:29:02.011Z,6.05
2023-03-12T17:32:01.433Z,5.77
2023-03-12T17:35:03.841Z,5.62
2023-03-12T17:37:58.872Z,5.63
2023-03-12T17:40:31.466Z,5.52
2023-03-12T17:43:04.075Z,5.46
2023-03-12T17:45:42.987Z,5.22
2023-03-12T17:49:01.255Z,5.19
2023-03-12T17:52:03.849Z,5.05
2023-03-12T17:54:35.958Z,4.88
2023-03-12T17:57:10.101Z,4.48
2023-03-12T17:59:41.137Z,4.43
2023-03-12T18:02:16.906Z,4.43
2023-03-12T18:04:49.366Z,4.28
2023-03-12T18:07:25.126Z,4.21
2023-03-12T18:10:06.502Z,4.08
2023-03-12T18:12:52.974Z,3.97
2023-03-12T18:15:30.281Z,4.06
2023-03-12T18:18:01.282Z,3.97
2023-03-12T18:20:38.605Z,3.84
2023-03-12T18:23:17.097Z,3.71
2023-03-12T18:26:15.602Z,3.40
2023-03-12T18:28:54.144Z,3.30
2023-03-12T18:32:14.658Z,2.91
2023-03-12T18:34:50.206Z,2.90
2023-03-12T18:37:32.754Z,2.88
2023-03-12T18:40:06.071Z,2.80
2023-03-12T18:42:37.286Z,2.61
2023-03-12T18:45:14.830Z,2.56
2023-03-12T18:47:51.728Z,2.50
2023-03-12T18:50:26.237Z,2.47
2023-03-12T18:52:58.930Z,2.37
2023-03-12T18:55:28.730Z,2.33
2023-03-12T18:58:01.072Z,2.35
2023-03-12T19:00:34.776Z,2.19
2023-03-12T19:03:22.505Z,1.88
2023-03-12T19:06:03.637Z,1.58
2023-03-12T19:08:36.089Z,1.43
2023-03-12T19:11:13.403Z,1.33
2023-03-12T19:13:50.273Z,1.25
2023-03-12T19:16:27.827Z,1.08
2023-03-12T19:19:02.116Z,1.06
2023-03-12T19:21:38.206Z,0.93
2023-03-12T19:24:16.428Z,0.95
2023-03-12T19:26:49.055Z,1.05
2023-03-12T19:29:30.116Z,1.15
2023-03-12T19:32:01.334Z,1.19
2023-03-12T19:34:32.771Z,1.25
2023-03-12T19:37:09.374Z,1.30
2023-03-12T19:39:47.726Z,1.30
2023-03-12T19:42:17.153Z,1.29
2023-03-12T19:44:54.853Z,1.38
2023-03-12T19:47:31.762Z,1.36
2023-03-12T19:50:03.314Z,1.22
2023-03-12T19:52:37.091Z,0.96
2023-03-12T19:55:07.764Z,0.70
2023-03-12T19:57:39.793Z,0.63
2023-03-12T20:00:14.261Z,0.37
2023-03-12T20:02:55.869Z,0.44
2023-03-12T20:05:26.379Z,0.61
2023-03-12T20:07:59.564Z,0.74
2023-03-12T20:10:38.627Z,0.81
2023-03-12T20:13:14.113Z,0.85
2023-03-12T20:15:48.689Z,0.82
2023-03-12T20:18:22.437Z,0.84
2023-03-12T20:20:55.214Z,0.89
2023-03-12T20:23:31.964Z,0.82
2023-03-12T20:26:02.774Z,0.80
2023-03-12T20:28:34.546Z,0.75
2023-03-12T20:31:12.873Z,0.77
2023-03-12T20:33:44.473Z,0.88
2023-03-12T20:36:16.931Z,0.96
2023-03-12T20:38:52.290Z,1.01
2023-03-12T20:41:22.859Z,0.96
2023-03-12T20:43:59.991Z,0.82
2023-03-12T20:46:30.039Z,0.73
2023-03-12T20:49:01.783Z,0.70
2023-03-12T20:51:34.525Z,0.75
2023-03-12T20:54:08.807Z,0.78
2023-03-12T20:56:44.433Z,0.85
2023-03-12T20:59:16.166Z,0.91
2023-03-12T21:01:50.778Z,0.96
2023-03-12T21:04:22.090Z,1.02
2023-03-12T21:06:53.408Z,0.89
2023-03-12T21:09:28.794Z,0.77
2023-03-12T21:11:58.941Z,0.67
2023-03-12T21:14:33.488Z,0.61
2023-03-12T21:17:07.520Z,0.56
2023-03-12T21:20:09.768Z,0.65
2023-03-12T21:22:47.084Z,0.73
2023-03-12T21:25:18.950Z,0.80
2023-03-12T21:27:53.084Z,0.92
2023-03-12T21:30:22.817Z,0.95
2023-03-12T21:32:56.305Z,0.93
2023-03-12T21:35:29.585Z,0.95
2023-03-12T21:38:28.553Z,1.02
2023-03-12T21:41:07.315Z,1.02
2023-03-12T21:44:35.172Z,1.09
2023-03-12T21:47:05.864Z,1.15
2023-03-12T21:49:44.996Z,1.23
2023-03-12T21:52:17.507Z,1.32
2023-03-12T21:54:45.968Z,1.46
2023-03-12T21:57:42.377Z,1.56
2023-03-12T22:00:18.592Z,1.60
2023-03-12T22:02:48.242Z,1.67
2023-03-12T22:05:18.679Z,1.71
2023-03-12T22:07:48.081Z,1.79
2023-03-12T22:10:19.663Z,1.88
2023-03-12T22:12:49.690Z,1.87
2023-03-12T22:15:19.099Z,1.89
2023-03-12T22:17:47.357Z,1.88
2023-03-12T22:20:16.979Z,1.79
2023-03-12T22:22:45.744Z,1.74
2023-03-12T22:25:15.053Z,1.68
2023-03-12T22:27:44.292Z,1.66
2023-03-12T22:30:16.504Z,1.64
2023-03-12T22:32:45.920Z,1.67
2023-03-12T22:35:14.290Z,1.68
2023-03-12T22:37:48.838Z,1.77
2023-03-12T22:40:17.299Z,1.81
2023-03-12T22:42:50.979Z,1.87
2023-03-12T22:45:21.081Z,1.95
2023-03-12T22:47:50.359Z,1.95
2023-03-12T22:50:18.757Z,1.98
2023-03-12T22:52:49.835Z,2.04
2023-03-12T22:55:18.330Z,2.08
2023-03-12T22:57:48.628Z,2.14
2023-03-12T23:00:23.121Z,2.22
2023-03-12T23:02:51.667Z,2.23
2023-03-12T23:05:20.200Z,2.28
2023-03-12T23:07:54.647Z,2.36
2023-03-12T23:10:22.924Z,2.44
2023-03-12T23:12:53.288Z,2.54
2023-03-12T23:15:35.130Z,2.58
2023-03-12T23:18:08.692Z,2.67
2023-03-12T23:20:40.634Z,2.73
2023-03-12T23:23:15.660Z,2.74
2023-03-12T23:25:44.120Z,2.74
2023-03-12T23:28:12.339Z,2.79
2023-03-12T23:30:42.053Z,2.80
2023-03-12T23:37:10.617Z,2.87
2023-03-12T23:39:53.438Z,2.92
2023-03-12T23:42:22.692Z,2.94
2023-03-12T23:44:51.997Z,2.94
2023-03-12T23:47:21.775Z,2.95
2023-03-12T23:49:50.095Z,2.94
2023-03-12T23:52:27.518Z,2.95
2023-03-12T23:54:55.804Z,2.97
2023-03-12T23:57:24.124Z,2.94
2023-03-12T23:59:52.404Z,2.85
